Time;durP1;ratioP1;P1;durP2;ratioP2;P2;SDS_P1;SDS_P2;PMS_P1;PMS_P2;Temp;Humidity;BMP_temperature;BMP_pressure;BME280_temperature;BME280_humidity;BME280_pressure;Samples;Min_cycle;Max_cycle;Signal;HPM_P1;HPM_P2
2022/12/09 00:00:37;;;;;;;;;;;;;;;12.07;71.58;100392.25;1262414;23;645;-69
2022/12/09 00:01:27;;;;;;;;;;;;;;;12.07;71.68;100397.59;1262346;23;653;-69
2022/12/09 00:02:18;;;;;;;;;;;;;;;12.04;71.53;100390.66;1261445;23;670;-69
2022/12/09 00:03:09;;;;;;;;;;;;;;;12.05;71.13;100396.84;1261495;23;748;-69
2022/12/09 00:03:59;;;;;;;;;;;;;;;12.04;71.50;100393.34;1261554;23;646;-69
2022/12/09 00:04:50;;;;;;;;;;;;;;;12.06;71.38;100391.41;1261516;23;670;-69
2022/12/09 00:05:40;;;;;;;;;;;;;;;12.05;71.62;100391.50;1261551;23;705;-69
2022/12/09 00:06:32;;;;;;;;;;;;;;;12.03;71.33;100386.28;1261439;23;630;-69
2022/12/09 00:07:22;;;;;;;;;;;;;;;12.04;71.09;100387.13;1261515;23;610;-69
2022/12/09 00:08:12;;;;;;;;;;;;;;;12.03;71.36;100386.28;1262271;23;630;-69
2022/12/09 00:09:03;;;;;;;;;;;;;;;12.05;71.93;100391.50;1261442;23;610;-69
2022/12/09 00:09:53;;;;;;;;;;;;;;;12.04;71.92;100388.00;1261494;23;657;-69
2022/12/09 00:10:44;;;;;;;;;;;;;;;12.04;71.17;100381.81;1261360;23;889;-69
2022/12/09 00:11:34;;;;;;;;;;;;;;;12.05;71.95;100384.34;1262372;23;610;-69
2022/12/09 00:12:25;;;;;;;;;;;;;;;12.03;71.61;100388.97;1256659;23;641;-69
2022/12/09 00:13:15;;;;;;;;;;;;;;;12.03;71.25;100388.97;1254580;23;622;-69
2022/12/09 00:14:05;;;;;;;;;;;;;;;12.03;71.47;100380.94;1261196;23;646;-69
2022/12/09 00:14:56;;;;;;;;;;;;;;;12.05;71.67;100386.16;1261491;23;658;-69
2022/12/09 00:15:46;;;;;;;;;;;;;;;12.06;71.87;100382.53;1262254;23;611;-69
2022/12/09 00:16:37;;;;;;;;;;;;;;;12.05;71.13;100375.50;1262216;23;653;-69
2022/12/09 00:17:27;;;;;;;;;;;;;;;12.06;71.27;100379.84;1261548;23;618;-69
2022/12/09 00:18:17;;;;;;;;;;;;;;;12.06;71.25;100380.72;1261554;23;687;-69
2022/12/09 00:19:08;;;;;;;;;;;;;;;12.07;71.34;100381.56;1261476;23;662;-69
2022/12/09 00:19:58;;;;;;;;;;;;;;;12.04;71.35;100377.31;1261381;23;650;-69
2022/12/09 00:20:49;;;;;;;;;;;;;;;12.05;72.04;100384.34;1261389;23;701;-69
2022/12/09 00:21:41;;;;;;;;;;;;;;;12.03;71.72;100378.28;1261490;23;635;-69
2022/12/09 00:22:31;;;;;;;;;;;;;;;12.04;71.61;100376.47;1261569;23;603;-69
2022/12/09 00:23:22;;;;;;;;;;;;;;;12.03;71.64;100375.59;1261602;23;618;-69
2022/12/09 00:24:12;;;;;;;;;;;;;;;12.03;71.54;100372.94;1261435;23;641;-69
2022/12/09 00:25:03;;;;;;;;;;;;;;;12.03;71.17;100380.94;1261421;23;633;-69
2022/12/09 00:25:53;;;;;;;;;;;;;;;12.03;71.05;100375.59;1261410;23;649;-69
2022/12/09 00:26:43;;;;;;;;;;;;;;;12.03;71.82;100375.59;1261251;23;1935;-69
2022/12/09 00:27:34;;;;;;;;;;;;;;;12.03;71.92;100374.75;1260854;23;661;-69
2022/12/09 00:28:24;;;;;;;;;;;;;;;12.01;71.78;100372.19;1261453;23;622;-70
2022/12/09 00:29:15;;;;;;;;;;;;;;;12.01;71.43;100372.19;1261374;23;591;-69
2022/12/09 00:30:05;;;;;;;;;;;;;;;12.01;72.08;100376.69;1261522;23;637;-69
2022/12/09 00:30:56;;;;;;;;;;;;;;;12.03;71.80;100375.59;1261513;23;618;-69
2022/12/09 00:31:46;;;;;;;;;;;;;;;12.01;72.05;100372.19;1261116;23;634;-68
2022/12/09 00:32:36;;;;;;;;;;;;;;;12.02;71.85;100379.25;1261536;23;622;-68
2022/12/09 00:33:27;;;;;;;;;;;;;;;12.04;71.96;100377.31;1261377;23;610;-68
2022/12/09 00:34:17;;;;;;;;;;;;;;;12.03;71.84;100375.59;1261534;23;642;-68
2022/12/09 00:35:08;;;;;;;;;;;;;;;12.03;71.46;100380.94;1261407;23;678;-69
2022/12/09 00:35:58;;;;;;;;;;;;;;;12.05;71.11;100373.66;1256977;23;645;-70
2022/12/09 00:36:48;;;;;;;;;;;;;;;12.05;71.98;100380.84;1255208;23;630;-69
2022/12/09 00:37:39;;;;;;;;;;;;;;;12.04;71.50;100376.47;1261217;23;690;-69
2022/12/09 00:38:29;;;;;;;;;;;;;;;12.07;71.93;100371.72;1261418;23;665;-69
2022/12/09 00:39:20;;;;;;;;;;;;;;;12.06;71.21;100374.53;1255052;23;654;-69
2022/12/09 00:40:10;;;;;;;;;;;;;;;12.03;71.19;100375.59;1255183;23;653;-69
2022/12/09 00:41:01;;;;;;;;;;;;;;;12.03;71.36;100367.59;1261267;23;673;-68
2022/12/09 00:41:51;;;;;;;;;;;;;;;12.05;71.09;100372.81;1261447;23;610;-69
2022/12/09 00:42:42;;;;;;;;;;;;;;;12.05;71.96;100370.16;1261422;23;662;-69
2022/12/09 00:43:32;;;;;;;;;;;;;;;12.04;71.82;100371.97;1261399;23;615;-69
2022/12/09 00:44:23;;;;;;;;;;;;;;;12.03;71.11;100372.94;1261391;23;681;-69
2022/12/09 00:45:13;;;;;;;;;;;;;;;12.04;71.27;100377.31;1261384;23;665;-69
2022/12/09 00:46:03;;;;;;;;;;;;;;;12.04;71.26;100374.63;1261556;23;677;-68
2022/12/09 00:46:54;;;;;;;;;;;;;;;12.03;71.22;100375.59;1262151;23;1885;-69
2022/12/09 00:47:44;;;;;;;;;;;;;;;12.05;71.16;100379.00;1261381;23;654;-68
2022/12/09 00:48:37;;;;;;;;;;;;;;;12.05;71.97;100375.50;1261503;23;657;-69
2022/12/09 00:49:27;;;;;;;;;;;;;;;12.05;71.13;100373.66;1261439;23;622;-69
2022/12/09 00:50:18;;;;;;;;;;;;;;;12.05;71.93;100381.69;1261128;23;1041;-69
2022/12/09 00:51:08;;;;;;;;;;;;;;;12.05;71.03;100376.34;1261296;23;666;-69
2022/12/09 00:51:58;;;;;;;;;;;;;;;12.04;71.05;100377.31;1262149;23;685;-68
2022/12/09 00:52:49;;;;;;;;;;;;;;;12.05;71.74;100384.34;1261321;23;607;-68
2022/12/09 00:53:40;;;;;;;;;;;;;;;12.04;71.43;100379.13;1261452;23;622;-68
2022/12/09 00:54:30;;;;;;;;;;;;;;;12.03;71.30;100380.09;1261400;23;650;-68
2022/12/09 00:55:21;;;;;;;;;;;;;;;12.03;71.10;100388.97;1262276;23;622;-69
2022/12/09 00:56:11;;;;;;;;;;;;;;;12.03;71.52;100380.09;1261356;23;654;-68
2022/12/09 00:57:01;;;;;;;;;;;;;;;12.04;71.97;100379.97;1261428;23;696;-68
2022/12/09 00:57:52;;;;;;;;;;;;;;;12.02;71.93;100384.59;1261468;23;623;-68
2022/12/09 00:58:42;;;;;;;;;;;;;;;12.02;71.00;100379.25;1261350;23;627;-68
2022/12/09 00:59:33;;;;;;;;;;;;;;;12.02;71.65;100381.91;1262204;23;590;-68
2022/12/09 01:00:23;;;;;;;;;;;;;;;11.99;71.29;100379.50;1262217;23;945;-68
2022/12/09 01:01:14;;;;;;;;;;;;;;;12.01;71.01;100372.19;1262354;23;626;-69
2022/12/09 01:02:04;;;;;;;;;;;;;;;12.02;71.20;100381.91;1261278;23;669;-68
2022/12/09 01:02:54;;;;;;;;;;;;;;;12.00;71.39;100375.84;1261295;23;732;-68
2022/12/09 01:03:45;;;;;;;;;;;;;;;12.02;71.99;100378.41;1261280;23;614;-68
2022/12/09 01:04:35;;;;;;;;;;;;;;;11.99;71.95;100378.66;1261288;23;631;-68
2022/12/09 01:05:26;;;;;;;;;;;;;;;11.99;71.12;100382.19;1262170;23;657;-68
2022/12/09 01:06:16;;;;;;;;;;;;;;;12.00;71.08;100383.84;1261392;23;599;-70
2022/12/09 01:07:06;;;;;;;;;;;;;;;12.00;71.15;100380.38;1261216;23;1901;-70
2022/12/09 01:07:57;;;;;;;;;;;;;;;11.98;71.78;100383.16;1262315;23;619;-70
2022/12/09 01:08:47;;;;;;;;;;;;;;;11.98;71.67;100379.63;1261338;23;1140;-70
2022/12/09 01:09:38;;;;;;;;;;;;;;;12.00;72.08;100380.38;1261411;23;630;-70
2022/12/09 01:10:28;;;;;;;;;;;;;;;11.97;71.10;100389.47;1261325;23;614;-69
2022/12/09 01:11:19;;;;;;;;;;;;;;;12.00;71.54;100385.72;1261713;23;712;-70
2022/12/09 01:12:09;;;;;;;;;;;;;;;11.98;71.50;100392.97;1261425;23;649;-69
2022/12/09 01:12:59;;;;;;;;;;;;;;;11.96;71.41;100395.78;1261293;23;654;-69
2022/12/09 01:13:50;;;;;;;;;;;;;;;11.97;71.65;100394.81;1261250;23;614;-69
2022/12/09 01:14:40;;;;;;;;;;;;;;;11.97;72.19;100397.47;1261375;23;772;-70
2022/12/09 01:15:31;;;;;;;;;;;;;;;11.97;71.27;100393.94;1261283;23;642;-69
2022/12/09 01:16:21;;;;;;;;;;;;;;;11.97;71.32;100392.13;1261394;23;804;-69
2022/12/09 01:17:12;;;;;;;;;;;;;;;11.98;71.28;100396.50;1261292;23;594;-69
2022/12/09 01:18:02;;;;;;;;;;;;;;;11.97;71.52;100400.13;1261365;23;806;-69
2022/12/09 01:18:53;;;;;;;;;;;;;;;11.96;71.82;100401.09;1261420;23;637;-69
2022/12/09 01:19:44;;;;;;;;;;;;;;;11.98;72.18;100392.97;1261424;23;622;-69
2022/12/09 01:20:34;;;;;;;;;;;;;;;11.98;71.86;100395.66;1261374;23;654;-69
2022/12/09 01:21:25;;;;;;;;;;;;;;;11.96;71.30;100390.44;1261297;23;654;-69
2022/12/09 01:22:15;;;;;;;;;;;;;;;11.97;71.48;100397.47;1261427;23;662;-70
2022/12/09 01:23:05;;;;;;;;;;;;;;;11.96;71.31;100403.78;1261262;23;672;-69
2022/12/09 01:23:56;;;;;;;;;;;;;;;11.97;72.19;100400.13;1261405;23;673;-69
2022/12/09 01:24:46;;;;;;;;;;;;;;;11.97;71.73;100402.81;1261287;23;646;-69
2022/12/09 01:25:37;;;;;;;;;;;;;;;11.96;71.91;100406.44;1260836;23;614;-69
2022/12/09 01:26:27;;;;;;;;;;;;;;;11.95;72.13;100399.41;1256874;23;606;-69
2022/12/09 01:27:17;;;;;;;;;;;;;;;11.94;71.28;100397.69;1255042;23;693;-69
2022/12/09 01:28:08;;;;;;;;;;;;;;;11.95;71.40;100402.06;1261220;23;603;-68
2022/12/09 01:28:58;;;;;;;;;;;;;;;11.95;71.60;100402.06;1261345;23;673;-69
2022/12/09 01:29:49;;;;;;;;;;;;;;;11.96;71.80;100401.09;1261237;23;633;-69
2022/12/09 01:30:39;;;;;;;;;;;;;;;11.96;71.85;100405.59;1261396;23;626;-69
2022/12/09 01:31:30;;;;;;;;;;;;;;;11.98;72.06;100404.50;1262110;23;638;-69
2022/12/09 01:32:20;;;;;;;;;;;;;;;11.96;72.18;100406.44;1261498;23;614;-68
2022/12/09 01:33:11;;;;;;;;;;;;;;;11.96;71.35;100401.09;1261197;23;669;-69
2022/12/09 01:34:01;;;;;;;;;;;;;;;11.96;71.88;100405.59;1261278;23;815;-69
2022/12/09 01:34:52;;;;;;;;;;;;;;;11.95;71.35;100407.41;1256546;23;681;-69
2022/12/09 01:35:42;;;;;;;;;;;;;;;11.95;71.86;100404.75;1254926;23;896;-69
2022/12/09 01:36:32;;;;;;;;;;;;;;;11.96;72.15;100409.13;1261244;23;807;-69
2022/12/09 01:37:23;;;;;;;;;;;;;;;11.94;71.53;100408.38;1261376;23;646;-70
2022/12/09 01:38:13;;;;;;;;;;;;;;;11.92;71.85;100404.97;1261299;23;622;-68
2022/12/09 01:39:04;;;;;;;;;;;;;;;11.94;71.47;100403.03;1261343;23;626;-68
2022/12/09 01:39:54;;;;;;;;;;;;;;;11.96;72.14;100406.44;1261296;23;657;-68
2022/12/09 01:40:45;;;;;;;;;;;;;;;11.96;71.22;100411.78;1262104;23;689;-68
2022/12/09 01:41:36;;;;;;;;;;;;;;;11.97;72.02;100405.47;1261352;23;626;-68
2022/12/09 01:42:26;;;;;;;;;;;;;;;11.96;71.36;100410.94;1261232;23;658;-68
2022/12/09 01:43:17;;;;;;;;;;;;;;;11.95;71.15;100407.41;1261328;23;646;-68
2022/12/09 01:44:07;;;;;;;;;;;;;;;11.96;72.13;100403.78;1256599;23;595;-68
2022/12/09 01:44:57;;;;;;;;;;;;;;;11.95;72.04;100409.25;1255004;23;666;-68
2022/12/09 01:45:48;;;;;;;;;;;;;;;11.94;71.86;100405.72;1261134;23;662;-68
2022/12/09 01:46:38;;;;;;;;;;;;;;;11.92;72.07;100404.97;1261241;23;635;-69
2022/12/09 01:47:29;;;;;;;;;;;;;;;11.92;72.23;100402.31;1261365;23;615;-69
2022/12/09 01:48:19;;;;;;;;;;;;;;;11.93;71.63;100408.50;1261337;23;682;-68
2022/12/09 01:49:10;;;;;;;;;;;;;;;11.94;72.27;100404.88;1261178;23;650;-69
2022/12/09 01:50:00;;;;;;;;;;;;;;;11.93;71.43;100405.84;1261344;23;615;-69
2022/12/09 01:50:50;;;;;;;;;;;;;;;11.92;71.42;100410.31;1261316;23;654;-68
2022/12/09 01:51:41;;;;;;;;;;;;;;;11.94;71.47;100404.88;1261443;23;642;-69
2022/12/09 01:52:31;;;;;;;;;;;;;;;11.90;72.12;100406.06;1261123;23;615;-68
2022/12/09 01:53:22;;;;;;;;;;;;;;;11.89;71.52;100402.53;1261347;23;930;-68
2022/12/09 01:54:12;;;;;;;;;;;;;;;11.89;71.66;100404.34;1262052;23;633;-69
2022/12/09 01:55:02;;;;;;;;;;;;;;;11.89;71.36;100407.88;1261452;23;530;-68
2022/12/09 01:55:53;;;;;;;;;;;;;;;11.88;71.74;100402.66;1261214;23;658;-68
2022/12/09 01:56:43;;;;;;;;;;;;;;;11.90;71.68;100403.38;1261232;23;649;-68
2022/12/09 01:57:34;;;;;;;;;;;;;;;11.90;71.21;100403.38;1262055;23;584;-69
2022/12/09 01:58:24;;;;;;;;;;;;;;;11.89;71.52;100399.03;1261300;23;606;-69
2022/12/09 01:59:15;;;;;;;;;;;;;;;11.90;72.07;100403.38;1256609;23;767;-69
2022/12/09 02:00:05;;;;;;;;;;;;;;;11.90;71.43;100401.56;1255061;23;646;-69
2022/12/09 02:00:55;;;;;;;;;;;;;;;11.90;72.00;100395.38;1261174;23;654;-69
2022/12/09 02:01:46;;;;;;;;;;;;;;;11.90;72.18;100395.38;1261199;23;653;-69
2022/12/09 02:02:36;;;;;;;;;;;;;;;11.89;72.00;100391.00;1261350;23;622;-69
2022/12/09 02:03:27;;;;;;;;;;;;;;;11.90;72.21;100390.03;1262247;23;626;-68
2022/12/09 02:04:17;;;;;;;;;;;;;;;11.88;71.36;100391.97;1262224;23;653;-68
2022/12/09 02:05:08;;;;;;;;;;;;;;;11.88;71.45;100392.81;1261978;23;646;-68
2022/12/09 02:05:58;;;;;;;;;;;;;;;11.89;71.41;100391.88;1262236;23;684;-68
2022/12/09 02:06:49;;;;;;;;;;;;;;;11.89;71.74;100391.88;1256441;23;1909;-68
2022/12/09 02:07:39;;;;;;;;;;;;;;;11.87;71.90;100396.47;1254998;23;623;-68
2022/12/09 02:08:29;;;;;;;;;;;;;;;11.90;71.20;100396.22;1261101;23;582;-68
2022/12/09 02:09:20;;;;;;;;;;;;;;;11.90;71.66;100401.56;1260595;23;657;-68
2022/12/09 02:10:10;;;;;;;;;;;;;;;11.89;71.22;100399.03;1262114;23;618;-68
2022/12/09 02:11:01;;;;;;;;;;;;;;;11.87;71.28;100393.78;1261201;23;630;-68
2022/12/09 02:11:51;;;;;;;;;;;;;;;11.87;71.50;100395.63;1261349;23;631;-68
2022/12/09 02:12:42;;;;;;;;;;;;;;;11.85;72.11;100397.56;1262176;23;650;-68
2022/12/09 02:13:32;;;;;;;;;;;;;;;11.83;72.32;100395.84;1261304;23;606;-69
2022/12/09 02:14:23;;;;;;;;;;;;;;;11.84;71.31;100396.69;1261266;23;670;-68
2022/12/09 02:15:13;;;;;;;;;;;;;;;11.85;71.50;100394.88;1261314;23;662;-68
2022/12/09 02:16:03;;;;;;;;;;;;;;;11.82;71.90;100396.00;1261235;23;687;-68
2022/12/09 02:16:54;;;;;;;;;;;;;;;11.81;71.90;100397.81;1261195;23;696;-68
2022/12/09 02:17:44;;;;;;;;;;;;;;;11.82;72.11;100393.31;1261287;23;699;-68
2022/12/09 02:18:35;;;;;;;;;;;;;;;11.80;72.14;100390.78;1262051;23;609;-68
2022/12/09 02:19:25;;;;;;;;;;;;;;;11.81;71.45;100395.16;1262144;23;620;-69
2022/12/09 02:20:16;;;;;;;;;;;;;;;11.81;71.27;100392.47;1261204;23;685;-68
2022/12/09 02:21:06;;;;;;;;;;;;;;;11.79;71.40;100386.41;1262166;23;653;-68
2022/12/09 02:21:57;;;;;;;;;;;;;;;11.79;71.32;100385.53;1261258;23;669;-69
2022/12/09 02:22:47;;;;;;;;;;;;;;;11.79;72.29;100385.53;1262114;23;617;-69
2022/12/09 02:23:38;;;;;;;;;;;;;;;11.79;72.23;100390.88;1260546;23;665;-69
2022/12/09 02:24:28;;;;;;;;;;;;;;;11.79;72.31;100385.53;1261329;23;693;-69
2022/12/09 02:25:18;;;;;;;;;;;;;;;11.80;71.33;100384.59;1262128;23;676;-69
2022/12/09 02:26:09;;;;;;;;;;;;;;;11.78;72.29;100381.19;1261304;23;700;-69
2022/12/09 02:26:59;;;;;;;;;;;;;;;11.80;71.50;100384.59;1261141;23;1936;-69
2022/12/09 02:27:50;;;;;;;;;;;;;;;11.78;71.73;100382.03;1256727;23;686;-69
2022/12/09 02:28:40;;;;;;;;;;;;;;;11.77;72.27;100383.00;1255040;23;624;-69
2022/12/09 02:29:31;;;;;;;;;;;;;;;11.78;72.07;100387.38;1261152;23;622;-69
2022/12/09 02:30:21;;;;;;;;;;;;;;;11.77;71.62;100379.47;1261253;23;614;-69
2022/12/09 02:31:12;;;;;;;;;;;;;;;11.77;72.06;100377.66;1261254;23;621;-69
2022/12/09 02:32:02;;;;;;;;;;;;;;;11.78;71.56;100381.19;1261233;23;587;-69
2022/12/09 02:32:53;;;;;;;;;;;;;;;11.77;71.91;100384.81;1261434;23;626;-69
2022/12/09 02:33:43;;;;;;;;;;;;;;;11.79;71.85;100382.88;1261320;23;780;-69
2022/12/09 02:34:33;;;;;;;;;;;;;;;11.79;71.41;100382.88;1261269;23;606;-68
2022/12/09 02:35:24;;;;;;;;;;;;;;;11.78;71.17;100378.50;1261071;23;619;-69
2022/12/09 02:36:14;;;;;;;;;;;;;;;11.77;71.31;100379.47;1262066;23;665;-68
2022/12/09 02:37:05;;;;;;;;;;;;;;;11.77;71.39;100383.00;1262020;23;669;-69
2022/12/09 02:37:55;;;;;;;;;;;;;;;11.76;71.67;100385.78;1261254;23;743;-69
2022/12/09 02:38:45;;;;;;;;;;;;;;;11.73;72.01;100380.63;1261316;23;677;-68
2022/12/09 02:39:36;;;;;;;;;;;;;;;11.75;72.14;100382.22;1261154;23;622;-68
2022/12/09 02:40:26;;;;;;;;;;;;;;;11.78;71.35;100374.03;1261131;23;668;-68
2022/12/09 02:41:17;;;;;;;;;;;;;;;11.76;71.91;100381.28;1256458;23;657;-68
2022/12/09 02:42:07;;;;;;;;;;;;;;;11.77;72.18;100380.31;1254914;23;650;-69
2022/12/09 02:42:58;;;;;;;;;;;;;;;11.77;72.11;100380.31;1261206;23;646;-69
2022/12/09 02:43:48;;;;;;;;;;;;;;;11.79;72.14;100380.22;1261167;23;611;-68
2022/12/09 02:44:38;;;;;;;;;;;;;;;11.79;72.07;100380.22;1261251;23;630;-69
2022/12/09 02:45:29;;;;;;;;;;;;;;;11.79;72.19;100382.88;1261210;23;626;-68
2022/12/09 02:46:19;;;;;;;;;;;;;;;11.76;71.28;100383.09;1262128;23;658;-69
2022/12/09 02:47:10;;;;;;;;;;;;;;;11.75;71.23;100381.38;1261201;23;1893;-68
2022/12/09 02:48:00;;;;;;;;;;;;;;;11.74;72.21;100385.00;1262292;23;645;-68
2022/12/09 02:48:51;;;;;;;;;;;;;;;11.73;71.35;100385.97;1261133;23;830;-69
2022/12/09 02:49:41;;;;;;;;;;;;;;;11.75;71.92;100386.72;1261289;23;614;-69
2022/12/09 02:50:31;;;;;;;;;;;;;;;11.74;71.77;100383.19;1260957;23;1266;-70
2022/12/09 02:51:22;;;;;;;;;;;;;;;11.74;71.39;100385.00;1261371;23;614;-69
2022/12/09 02:52:12;;;;;;;;;;;;;;;11.75;71.46;100389.38;1261328;23;638;-69
2022/12/09 02:53:03;;;;;;;;;;;;;;;11.75;72.22;100384.91;1261993;23;633;-69
2022/12/09 02:53:53;;;;;;;;;;;;;;;11.75;71.45;100379.56;1260997;23;642;-69
2022/12/09 02:54:44;;;;;;;;;;;;;;;11.75;71.97;100381.38;1261254;23;645;-69
2022/12/09 02:55:34;;;;;;;;;;;;;;;11.75;72.07;100382.22;1262569;23;602;-69
2022/12/09 02:56:24;;;;;;;;;;;;;;;11.75;71.81;100382.22;1262590;23;606;-69
2022/12/09 02:57:15;;;;;;;;;;;;;;;11.76;71.25;100377.78;1261668;23;845;-68
2022/12/09 02:58:06;;;;;;;;;;;;;;;11.74;71.27;100377.84;1261711;23;650;-68
2022/12/09 02:58:56;;;;;;;;;;;;;;;11.76;72.14;100383.97;1261642;23;736;-68
2022/12/09 02:59:46;;;;;;;;;;;;;;;11.75;72.16;100381.38;1261587;23;646;-68
2022/12/09 03:00:37;;;;;;;;;;;;;;;11.72;72.18;100377.13;1261587;23;657;-68
2022/12/09 03:01:28;;;;;;;;;;;;;;;11.73;71.35;100380.63;1261587;23;661;-69
2022/12/09 03:02:18;;;;;;;;;;;;;;;11.72;71.91;100379.78;1261657;23;618;-69
2022/12/09 03:03:09;;;;;;;;;;;;;;;11.71;71.78;100379.91;1261727;23;696;-69
2022/12/09 03:03:59;;;;;;;;;;;;;;;11.73;71.25;100383.31;1262511;23;638;-69
2022/12/09 03:04:49;;;;;;;;;;;;;;;11.74;71.42;100385.00;1261733;23;611;-69
2022/12/09 03:05:40;;;;;;;;;;;;;;;11.75;71.81;100376.03;1262411;23;606;-69
2022/12/09 03:06:30;;;;;;;;;;;;;;;11.75;72.12;100378.72;1261610;23;1037;-69
2022/12/09 03:07:21;;;;;;;;;;;;;;;11.74;71.58;100375.19;1261045;23;634;-69
2022/12/09 03:08:11;;;;;;;;;;;;;;;11.73;71.30;100380.63;1261591;23;622;-69
2022/12/09 03:09:02;;;;;;;;;;;;;;;11.72;71.71;100376.28;1261566;23;626;-68
2022/12/09 03:09:52;;;;;;;;;;;;;;;11.70;72.21;100371.03;1261698;23;642;-69
2022/12/09 03:10:43;;;;;;;;;;;;;;;11.71;71.65;100372.75;1261552;23;662;-69
2022/12/09 03:11:33;;;;;;;;;;;;;;;11.72;71.17;100366.44;1261569;23;705;-69
2022/12/09 03:12:23;;;;;;;;;;;;;;;11.71;71.42;100364.75;1261671;23;614;-69
2022/12/09 03:13:14;;;;;;;;;;;;;;;11.71;72.10;100364.75;1261667;23;657;-69
2022/12/09 03:14:04;;;;;;;;;;;;;;;11.72;71.58;100360.25;1261506;23;586;-69
2022/12/09 03:14:55;;;;;;;;;;;;;;;11.72;72.07;100365.59;1261673;23;669;-70
2022/12/09 03:15:45;;;;;;;;;;;;;;;11.71;72.00;100363.88;1261459;23;760;-69
2022/12/09 03:16:36;;;;;;;;;;;;;;;11.71;72.15;100369.22;1261696;23;641;-69
2022/12/09 03:17:26;;;;;;;;;;;;;;;11.70;71.80;100367.53;1261707;23;646;-69
2022/12/09 03:18:16;;;;;;;;;;;;;;;11.71;71.57;100366.56;1261753;23;606;-69
2022/12/09 03:19:07;;;;;;;;;;;;;;;11.72;71.42;100362.91;1256734;23;634;-69
2022/12/09 03:19:57;;;;;;;;;;;;;;;11.70;71.87;100356.84;1255175;23;654;-69
2022/12/09 03:20:48;;;;;;;;;;;;;;;11.70;71.56;100364.84;1261426;23;642;-69
2022/12/09 03:21:38;;;;;;;;;;;;;;;11.70;71.46;100367.53;1260916;23;736;-69
2022/12/09 03:22:29;;;;;;;;;;;;;;;11.70;71.71;100357.69;1261670;23;638;-69
2022/12/09 03:23:19;;;;;;;;;;;;;;;11.70;71.44;100354.19;1261652;23;662;-69
2022/12/09 03:24:09;;;;;;;;;;;;;;;11.71;71.53;100361.22;1261481;23;645;-69
2022/12/09 03:25:00;;;;;;;;;;;;;;;11.70;72.40;100351.50;1261576;23;610;-70
2022/12/09 03:25:51;;;;;;;;;;;;;;;11.72;72.09;100355.75;1261519;23;654;-69
2022/12/09 03:26:41;;;;;;;;;;;;;;;11.72;71.40;100352.25;1261731;23;642;-69
2022/12/09 03:27:32;;;;;;;;;;;;;;;11.71;71.72;100350.53;1262405;23;646;-69
2022/12/09 03:28:22;;;;;;;;;;;;;;;11.72;72.19;100357.59;1261593;23;689;-69
2022/12/09 03:29:12;;;;;;;;;;;;;;;11.70;72.26;100355.03;1261664;23;686;-69
2022/12/09 03:30:03;;;;;;;;;;;;;;;11.70;72.36;100356.84;1261575;23;700;-69
2022/12/09 03:30:53;;;;;;;;;;;;;;;11.71;72.38;100347.88;1261633;23;615;-69
2022/12/09 03:31:44;;;;;;;;;;;;;;;11.72;71.96;100360.25;1261489;23;657;-70
2022/12/09 03:32:34;;;;;;;;;;;;;;;11.67;72.02;100354.41;1261449;23;581;-70
2022/12/09 03:33:25;;;;;;;;;;;;;;;11.70;71.73;100356.84;1261544;23;653;-70
2022/12/09 03:34:15;;;;;;;;;;;;;;;11.69;72.22;100356.00;1262439;23;642;-70
2022/12/09 03:35:05;;;;;;;;;;;;;;;11.71;71.97;100355.88;1262505;23;633;-69
2022/12/09 03:35:56;;;;;;;;;;;;;;;11.71;71.53;100355.88;1261462;23;717;-69
2022/12/09 03:36:46;;;;;;;;;;;;;;;11.70;71.43;100347.03;1261471;23;654;-69
2022/12/09 03:37:37;;;;;;;;;;;;;;;11.72;71.40;100352.25;1261596;23;666;-69
2022/12/09 03:38:27;;;;;;;;;;;;;;;11.71;71.23;100340.72;1261563;23;642;-69
2022/12/09 03:39:18;;;;;;;;;;;;;;;11.68;71.43;100343.63;1261565;23;659;-69
2022/12/09 03:40:08;;;;;;;;;;;;;;;11.69;71.53;100347.13;1261592;23;732;-69
2022/12/09 03:40:59;;;;;;;;;;;;;;;11.67;71.37;100341.91;1262410;23;630;-69
2022/12/09 03:41:49;;;;;;;;;;;;;;;11.67;72.33;100343.72;1261524;23;723;-69
2022/12/09 03:42:39;;;;;;;;;;;;;;;11.66;72.34;100340.22;1262447;23;650;-69
2022/12/09 03:43:30;;;;;;;;;;;;;;;11.66;71.77;100337.53;1261560;23;618;-69
2022/12/09 03:44:20;;;;;;;;;;;;;;;11.68;71.63;100343.63;1262495;23;666;-69
2022/12/09 03:45:11;;;;;;;;;;;;;;;11.68;72.30;100348.09;1261585;23;633;-69
2022/12/09 03:46:01;;;;;;;;;;;;;;;11.66;71.95;100345.56;1261368;23;994;-69
2022/12/09 03:46:52;;;;;;;;;;;;;;;11.69;72.08;100339.13;1261407;23;1935;-69
2022/12/09 03:47:42;;;;;;;;;;;;;;;11.66;71.40;100347.38;1261658;23;666;-69
2022/12/09 03:48:32;;;;;;;;;;;;;;;11.65;72.07;100343.84;1261609;23;637;-69
2022/12/09 03:49:23;;;;;;;;;;;;;;;11.65;72.21;100348.34;1261549;23;654;-70
2022/12/09 03:50:13;;;;;;;;;;;;;;;11.65;71.30;100343.00;1261321;23;971;-69
2022/12/09 03:51:04;;;;;;;;;;;;;;;11.65;71.40;100346.53;1261381;23;684;-69
2022/12/09 03:51:54;;;;;;;;;;;;;;;11.65;72.19;100351.00;1261503;23;619;-69
2022/12/09 03:52:45;;;;;;;;;;;;;;;11.66;72.13;100355.38;1261460;23;642;-69
2022/12/09 03:53:35;;;;;;;;;;;;;;;11.66;72.00;100347.38;1261434;23;678;-70
2022/12/09 03:54:25;;;;;;;;;;;;;;;11.65;71.75;100351.00;1261404;23;623;-69
2022/12/09 03:55:18;;;;;;;;;;;;;;;11.64;72.27;100346.66;1261571;23;618;-69
2022/12/09 03:56:09;;;;;;;;;;;;;;;11.64;72.13;100354.69;1261491;23;602;-69
2022/12/09 03:56:59;;;;;;;;;;;;;;;11.61;72.00;100342.41;1256771;23;699;-69
2022/12/09 03:57:49;;;;;;;;;;;;;;;11.60;71.60;100348.72;1255186;23;670;-69
2022/12/09 03:58:40;;;;;;;;;;;;;;;11.59;72.16;100354.16;1261429;23;638;-69
2022/12/09 03:59:30;;;;;;;;;;;;;;;11.61;72.32;100346.91;1261536;23;542;-69
2022/12/09 04:00:21;;;;;;;;;;;;;;;11.63;72.03;100350.31;1261492;23;606;-69
2022/12/09 04:01:11;;;;;;;;;;;;;;;11.62;72.19;100351.28;1261529;23;662;-69
2022/12/09 04:02:03;;;;;;;;;;;;;;;11.62;72.20;100348.59;1261472;23;650;-69
2022/12/09 04:02:54;;;;;;;;;;;;;;;11.59;72.13;100344.34;1261456;23;685;-69
2022/12/09 04:03:44;;;;;;;;;;;;;;;11.59;72.23;100340.81;1261420;23;653;-69
2022/12/09 04:04:35;;;;;;;;;;;;;;;11.58;72.15;100347.97;1261516;23;654;-69
2022/12/09 04:05:25;;;;;;;;;;;;;;;11.58;71.95;100345.31;1260947;23;589;-69
2022/12/09 04:06:15;;;;;;;;;;;;;;;11.59;72.03;100347.00;1256950;23;610;-69
2022/12/09 04:07:06;;;;;;;;;;;;;;;11.60;72.24;100350.53;1249013;23;1953;-69
2022/12/09 04:07:56;;;;;;;;;;;;;;;11.58;71.64;100347.13;1254175;23;642;-69
2022/12/09 04:08:47;;;;;;;;;;;;;;;11.59;72.23;100347.00;1254279;23;650;-69
2022/12/09 04:09:37;;;;;;;;;;;;;;;11.59;71.84;100340.81;1256148;23;649;-69
2022/12/09 04:10:28;;;;;;;;;;;;;;;11.61;72.17;100347.75;1262274;23;661;-69
2022/12/09 04:11:18;;;;;;;;;;;;;;;11.59;72.09;100341.69;1261570;23;768;-68
2022/12/09 04:12:08;;;;;;;;;;;;;;;11.59;72.03;100343.50;1261450;23;638;-68
2022/12/09 04:12:59;;;;;;;;;;;;;;;11.59;71.70;100347.00;1261460;23;661;-68
2022/12/09 04:13:49;;;;;;;;;;;;;;;11.60;71.70;100348.72;1261445;23;654;-69
2022/12/09 04:14:40;;;;;;;;;;;;;;;11.58;71.92;100347.13;1261510;23;611;-68
2022/12/09 04:15:30;;;;;;;;;;;;;;;11.57;71.71;100342.75;1261316;23;681;-68
2022/12/09 04:16:20;;;;;;;;;;;;;;;11.61;71.61;100346.91;1262276;23;658;-68
2022/12/09 04:17:11;;;;;;;;;;;;;;;11.60;71.34;100346.03;1261584;23;630;-68
2022/12/09 04:18:01;;;;;;;;;;;;;;;11.59;72.17;100343.50;1261459;23;630;-68
2022/12/09 04:18:52;;;;;;;;;;;;;;;11.57;72.17;100345.44;1261499;23;551;-68
2022/12/09 04:19:42;;;;;;;;;;;;;;;11.59;72.12;100351.50;1260920;23;614;-68
2022/12/09 04:20:33;;;;;;;;;;;;;;;11.56;71.70;100341.06;1261399;23;633;-68
2022/12/09 04:21:23;;;;;;;;;;;;;;;11.58;71.97;100341.78;1261501;23;649;-68
2022/12/09 04:22:14;;;;;;;;;;;;;;;11.56;71.70;100343.72;1262314;23;610;-68
2022/12/09 04:23:04;;;;;;;;;;;;;;;11.55;72.02;100342.03;1262265;23;641;-68
2022/12/09 04:23:54;;;;;;;;;;;;;;;11.57;71.43;100340.94;1261357;23;627;-68
2022/12/09 04:24:45;;;;;;;;;;;;;;;11.55;71.98;100337.53;1261303;23;689;-68
2022/12/09 04:25:35;;;;;;;;;;;;;;;11.55;71.48;100342.88;1261534;23;657;-68
2022/12/09 04:26:26;;;;;;;;;;;;;;;11.53;72.26;100341.28;1261351;23;1263;-68